Terminal Aerodrome Forecast
Issued by NWS

Current Version | Previous Version | Graphics & Text | Print | Product List | Glossary On
Versions: 1 2 3 4 5 6 7 8 9 10 11 12 13 14 15 16 17 18
000
FTUS41 KPBZ 150200 AAB
TAFHLG
TAF AMD
KHLG 150233Z 1503/1524 18010KT P6SM -SHRA OVC040
     FM150500 25012KT 5SM -RA OVC015
     FM150700 30012KT 3SM -SHRA OVC008
     FM151400 31015G25KT 3SM -SHSN OVC015
     FM151800 32015G25KT P6SM BKN035=

USA.gov is the U.S. government's official web portal to all federal, state and local government web resources and services.